METAR Data
IDs: Format: Raw Decoded Include TAF

Data at: 1525 UTC 21 May 2019

KCAV 211515Z AUTO 12023G30KT 10SM BKN022 OVC029 09/06 A2995 RMK AO2 PWINO
KCAV 211455Z AUTO 12020G27KT 10SM OVC024 10/06 A2996 RMK AO2 PWINO
KCAV 211435Z AUTO 11018G24KT 10SM BKN023 BKN027 OVC035 10/05 A2996 RMK AO2 PWINO
KCAV 211415Z AUTO 11023G29KT 10SM BKN022 BKN034 OVC060 10/06 A2996 RMK AO2 PWINO
KCAV 211355Z AUTO 11019G30KT 10SM SCT022 BKN034 OVC060 10/06 A2995 RMK AO2 PWINO
KCAV 211335Z AUTO 11020G27KT 10SM BKN021 OVC026 10/06 A2997 RMK AO2 PWINO
KCAV 211315Z AUTO 11016G23KT 10SM BKN020 OVC026 10/07 A2996 RMK AO2 PWINO
KCAV 211255Z AUTO 11015G26KT 10SM BKN021 BKN025 OVC035 10/06 A2998 RMK AO2 PWINO
KCAV 211235Z AUTO 12016KT 10SM FEW023 OVC037 10/06 A2998 RMK AO2 PWINO
KCAV 211215Z AUTO 11017G24KT 10SM BKN039 OVC044 10/06 A2998 RMK AO2 PWINO
KCAV 211155Z AUTO 10015G21KT 10SM OVC044 10/06 A2998 RMK AO2 PWINO
KCAV 211135Z AUTO 11011KT 10SM BKN047 OVC055 10/06 A2999 RMK AO2 PWINO
KCAV 211115Z AUTO 10011KT 10SM OVC055 10/06 A2998 RMK AO2 PWINO
KCAV 211055Z AUTO 10011KT 10SM OVC060 10/06 A2998 RMK AO2 PWINO
KCAV 211035Z AUTO 10012G17KT 10SM OVC060 10/06 A2999 RMK AO2 PWINO
KCAV 211015Z AUTO 10012G17KT 10SM OVC060 10/06 A3000 RMK AO2 PWINO
KCAV 210955Z AUTO 10012KT 10SM BKN060 OVC075 10/06 A2999 RMK AO2 PWINO
KCAV 210935Z AUTO 09011KT 10SM BKN055 OVC070 10/06 A3000 RMK AO2 PWINO
KCAV 210915Z AUTO 09011KT 10SM BKN055 OVC070 10/06 A3000 RMK AO2 PWINO
KCAV 210855Z AUTO 09011KT 10SM OVC065 10/06 A2999 RMK AO2 PWINO
KCAV 210835Z AUTO 08013KT 10SM OVC060 10/06 A2998 RMK AO2 PWINO
KCAV 210815Z AUTO 10010KT 10SM OVC065 10/06 A3001 RMK AO2 PWINO
KCAV 210755Z AUTO 09013KT 10SM OVC070 10/06 A3000 RMK AO2 PWINO
KCAV 210735Z AUTO 09011KT 10SM BKN065 OVC080 10/06 A3000 RMK AO2 PWINO
KCAV 210715Z AUTO 09010KT 10SM OVC065 10/06 A3001 RMK AO2 PWINO
KCAV 210655Z AUTO 09010KT 10SM BKN075 OVC090 10/06 A3002 RMK AO2 PWINO
KCAV 210635Z AUTO 09010KT OVC090 10/06 A3004 RMK AO2 PWINO
KCAV 210615Z AUTO 09011KT 10SM OVC080 10/06 A3004 RMK AO2 PWINO
KCAV 210555Z AUTO 10011KT 10SM OVC080 11/06 A3003 RMK AO2 PWINO
KCAV 210535Z AUTO 10011KT 10SM OVC085 11/06 A3004 RMK AO2 PWINO
KCAV 210515Z AUTO 10012KT 10SM BKN095 OVC110 11/06 A3005 RMK AO2 PWINO
KCAV 210455Z AUTO 10010KT 10SM OVC110 11/06 A3004 RMK AO2 PWINO
KCAV 210435Z AUTO 10011KT 10SM OVC120 11/06 A3005 RMK AO2 PWINO
KCAV 210415Z AUTO 10012KT 10SM BKN120 11/06 A3005 RMK AO2 PWINO
KCAV 210355Z AUTO 09011KT 10SM FEW120 11/06 A3005 RMK AO2 PWINO
KCAV 210335Z AUTO 09011KT 10SM CLR 11/06 A3005 RMK AO2 PWINO
KCAV 210315Z AUTO 08010KT 10SM CLR 11/06 A3006 RMK AO2 PWINO
KCAV 210255Z AUTO 08007KT 10SM CLR 11/06 A3007 RMK AO2 PWINO
KCAV 210235Z AUTO 09007KT 10SM CLR 11/07 A3007 RMK AO2 PWINO
KCAV 210215Z AUTO 10008KT 10SM CLR 12/06 A3007 RMK AO2 PWINO
KCAV 210155Z AUTO 11005KT 10SM CLR 12/06 A3009 RMK AO2 PWINO
KCAV 210135Z AUTO 10005KT 10SM CLR 12/06 A3008 RMK AO2 PWINO
KCAV 210115Z AUTO 10007KT 10SM CLR 12/06 A3007 RMK AO2 PWINO
KCAV 210055Z AUTO 09009KT 10SM CLR 13/05 A3006 RMK AO2 PWINO
KCAV 210035Z AUTO 09012KT 10SM CLR 13/04 A3006 RMK AO2 PWINO
KCAV 210015Z AUTO 10011KT 10SM CLR 14/04 A3008 RMK AO2 PWINO
KCAV 202355Z AUTO 08010KT 10SM CLR 14/04 A3008 RMK AO2 PWINO
KCAV 202335Z AUTO 08010KT 10SM FEW045 14/04 A3009 RMK AO2 PWINO
KCAV 202315Z AUTO 08012KT 10SM FEW045 14/04 A3010 RMK AO2 PWINO
KCAV 202255Z AUTO 10012KT 10SM CLR 14/04 A3010 RMK AO2 PWINO
KCAV 202235Z AUTO 09011KT 10SM FEW044 14/04 A3011 RMK AO2 PWINO
KCAV 202215Z AUTO 08011KT 10SM SCT044 14/04 A3011 RMK AO2 PWINO
KCAV 202155Z AUTO 11008KT 10SM SCT044 14/04 A3012 RMK AO2 PWINO
KCAV 202135Z AUTO 08009G15KT 10SM BKN045 14/04 A3013 RMK AO2 PWINO
KCAV 202115Z AUTO 08006G14KT 10SM SCT044 14/04 A3013 RMK AO2 PWINO
KCAV 202055Z AUTO 09010KT 10SM FEW045 14/04 A3013 RMK AO2 PWINO
KCAV 202035Z AUTO VRB05G14KT 10SM FEW044 14/03 A3013 RMK AO2 PWINO
KCAV 202015Z AUTO 05007G13KT 040V100 10SM BKN044 14/04 A3014 RMK AO2 PWINO
KCAV 201955Z AUTO 07010KT 10SM BKN043 14/04 A3014 RMK AO2 PWINO
KCAV 201935Z AUTO 05009KT 10SM BKN042 14/04 A3013 RMK AO2 PWINO
KCAV 201915Z AUTO 04010KT 10SM BKN041 14/04 A3013 RMK AO2 PWINO
KCAV 201855Z AUTO 06008G15KT 10SM SCT039 13/04 A3013 RMK AO2 PWINO
KCAV 201835Z AUTO 06007G18KT 10SM BKN038 13/05 A3014 RMK AO2 PWINO
KCAV 201815Z AUTO 02009G15KT 10SM BKN037 12/05 A3014 RMK AO2 PWINO
KCAV 201755Z AUTO 05013KT 10SM BKN036 BKN042 12/05 A3014 RMK AO2 PWINO
KCAV 201735Z AUTO 03009KT 10SM BKN033 BKN042 12/05 A3017 RMK AO2 PWINO
KCAV 201715Z AUTO 04011KT 10SM SCT033 12/05 A3017 RMK AO2 PWINO
KCAV 201655Z AUTO 01011G18KT 10SM BKN032 11/05 A3016 RMK AO2 PWINO
KCAV 201635Z AUTO 01014KT 10SM SCT028 SCT037 11/06 A3016 RMK AO2 PWINO
KCAV 201615Z AUTO 03012G18KT 10SM FEW030 11/05 A3016 RMK AO2 PWINO
KCAV 201555Z AUTO 36011G19KT 10SM CLR 10/05 A3016 RMK AO2 PWINO
KCAV 201535Z AUTO 01009G17KT 10SM CLR 10/05 A3017 RMK AO2 PWINO
KCAV 201515Z AUTO 02013G18KT 10SM FEW020 09/05 A3017 RMK AO2 PWINO
KCAV 201455Z AUTO 36010G15KT 10SM FEW019 09/05 A3019 RMK AO2 PWINO
KCAV 201435Z AUTO 03011KT 10SM SCT016 08/05 A3016 RMK AO2 PWINO
KCAV 201415Z AUTO 01010KT 10SM SCT015 08/05 A3016 RMK AO2 PWINO
KCAV 201355Z AUTO 36010G16KT 10SM FEW014 07/04 A3016 RMK AO2 PWINO
KCAV 201335Z AUTO 01014KT 10SM SCT013 06/04 A3015 RMK AO2 PWINO
KCAV 201315Z AUTO 36012KT 10SM BKN012 06/04 A3015 RMK AO2 PWINO
KCAV 201255Z AUTO 36013KT 10SM SCT012 05/03 A3014 RMK AO2 PWINO
KCAV 201235Z AUTO 36010KT 10SM FEW011 05/03 A3015 RMK AO2 PWINO
KCAV 201215Z AUTO 36012KT 10SM CLR 04/03 A3014 RMK AO2 PWINO
KCAV 201155Z AUTO 35010KT 10SM CLR 04/03 A3014 RMK AO2 PWINO
KCAV 201135Z AUTO 34008G13KT 10SM CLR 03/03 A3014 RMK AO2 PWINO
KCAV 201115Z AUTO 33009KT 10SM CLR 03/02 A3013 RMK AO2 PWINO
KCAV 201055Z AUTO 33010KT 10SM CLR 03/02 A3012 RMK AO2 PWINO
KCAV 201035Z AUTO 34008KT 10SM BKN016 04/02 A3011 RMK AO2 PWINO
KCAV 201015Z AUTO 34008KT 10SM OVC015 04/03 A3011 RMK AO2 PWINO
KCAV 200955Z AUTO 36007KT 10SM OVC016 04/03 A3010 RMK AO2 PWINO
KCAV 200935Z AUTO 01010KT 10SM OVC017 04/02 A3009 RMK AO2 PWINO
KCAV 200915Z AUTO 01007G14KT 10SM OVC017 05/02 A3007 RMK AO2 PWINO
KCAV 200855Z AUTO 35008KT 310V010 10SM OVC018 05/03 A3006 RMK AO2 PWINO
KCAV 200835Z AUTO 35010KT 10SM OVC019 05/03 A3006 RMK AO2 PWINO
KCAV 200815Z AUTO 35010KT 10SM OVC018 05/02 A3006 RMK AO2 PWINO
KCAV 200755Z AUTO 35010KT 10SM OVC018 05/02 A3007 RMK AO2 PWINO
KCAV 200735Z AUTO 35009KT 10SM OVC019 05/02 A3007 RMK AO2 PWINO
KCAV 200715Z AUTO 36007G15KT 10SM OVC017 05/02 A3006 RMK AO2 PWINO
KCAV 200655Z AUTO 36010KT 10SM OVC017 05/02 A3004 RMK AO2 PWINO
KCAV 200635Z AUTO 01011G18KT 10SM OVC017 05/02 A3005 RMK AO2 PWINO
KCAV 200615Z AUTO 35007G13KT 10SM OVC019 05/03 A3005 RMK AO2 PWINO
KCAV 200555Z AUTO 35012G17KT 10SM BKN017 OVC022 04/02 A3005 RMK AO2 PWINO
KCAV 200535Z AUTO 35010G15KT 10SM OVC023 04/02 A3004 RMK AO2 PWINO
KCAV 200515Z AUTO 35012KT 10SM BKN022 OVC026 04/02 A3004 RMK AO2 PWINO
KCAV 200455Z AUTO 36010G17KT 10SM FEW015 OVC023 04/03 A3002 RMK AO2 PWINO
KCAV 200435Z AUTO 36014G20KT 10SM BKN017 OVC022 05/03 A3001 RMK AO2 PWINO
KCAV 200415Z AUTO 36014G19KT 10SM BKN017 OVC048 05/03 A3000 RMK AO2 PWINO
KCAV 200355Z AUTO 36013G21KT 10SM SCT015 OVC048 05/03 A2999 RMK AO2 PWINO
KCAV 200335Z AUTO 36016G26KT 10SM BKN014 OVC020 05/03 A2998 RMK AO2 PWINO